Time;durP1;ratioP1;P1;durP2;ratioP2;P2;SDS_P1;SDS_P2;PMS_P1;PMS_P2;Temp;Humidity;BMP_temperature;BMP_pressure;BME280_temperature;BME280_humidity;BME280_pressure;Samples;Min_cycle;Max_cycle;Signal;HPM_P1;HPM_P2
2024/04/03 00:02:19;;;;;;;2.92;1.38;;;;;;;3.48;100.00;96235.69;4999139;28;20102;-66
2024/04/03 00:04:45;;;;;;;3.35;1.50;;;;;;;3.57;100.00;96237.19;4988986;28;20497;-68
2024/04/03 00:07:10;;;;;;;2.70;1.30;;;;;;;3.54;100.00;96234.34;4982416;28;20045;-68
2024/04/03 00:09:36;;;;;;;4.40;1.58;;;;;;;3.56;100.00;96229.38;5002888;28;20038;-67
2024/04/03 00:12:01;;;;;;;5.72;1.77;;;;;;;3.54;100.00;96228.94;5000234;28;20037;-64
2024/04/03 00:14:27;;;;;;;3.65;1.65;;;;;;;3.47;100.00;96225.97;4999862;28;20095;-69
2024/04/03 00:16:52;;;;;;;5.07;1.38;;;;;;;3.39;100.00;96222.22;5002590;28;20099;-67
2024/04/03 00:19:18;;;;;;;3.97;1.75;;;;;;;3.38;100.00;96226.03;4998074;28;20081;-66
2024/04/03 00:21:45;;;;;;;2.83;1.48;;;;;;;3.45;100.00;96227.06;5003134;28;20460;-67
2024/04/03 00:24:11;;;;;;;3.60;1.50;;;;;;;3.45;100.00;96212.75;4998301;28;20046;-68
2024/04/03 00:26:36;;;;;;;3.28;1.38;;;;;;;3.70;100.00;96210.94;5001756;28;20208;-68
2024/04/03 00:29:02;;;;;;;3.00;1.50;;;;;;;3.64;100.00;96201.44;4999432;28;20435;-65
2024/04/03 00:31:27;;;;;;;4.20;1.60;;;;;;;3.76;100.00;96204.19;5000039;28;20153;-66
2024/04/03 00:33:53;;;;;;;2.03;1.30;;;;;;;3.58;100.00;96192.75;5001355;28;20042;-65
2024/04/03 00:36:18;;;;;;;3.90;2.15;;;;;;;3.53;100.00;96184.00;4997502;28;20041;-67
2024/04/03 00:38:43;;;;;;;3.92;1.30;;;;;;;3.42;100.00;96183.63;5002166;28;20045;-67
2024/04/03 00:41:09;;;;;;;3.55;1.63;;;;;;;3.38;100.00;96182.72;4997566;28;20034;-69
2024/04/03 00:43:34;;;;;;;3.17;1.50;;;;;;;3.37;100.00;96175.75;5002425;28;20045;-65
2024/04/03 00:46:03;;;;;;;3.75;1.42;;;;;;;3.45;100.00;96172.16;5001996;28;20034;-68
2024/04/03 00:48:30;;;;;;;2.78;1.20;;;;;;;3.48;100.00;96176.91;5002398;28;20046;-67
2024/04/03 00:50:56;;;;;;;2.42;1.38;;;;;;;3.47;100.00;96172.59;5002006;28;20070;-67
2024/04/03 00:53:23;;;;;;;3.53;1.48;;;;;;;3.56;100.00;96164.41;4996613;28;20050;-65
2024/04/03 00:55:49;;;;;;;2.03;1.40;;;;;;;3.61;100.00;96166.91;5001800;28;20397;-66
2024/04/03 00:58:14;;;;;;;9.52;1.70;;;;;;;3.60;100.00;96166.13;4997188;28;20065;-65
2024/04/03 01:00:40;;;;;;;3.90;1.48;;;;;;;3.63;100.00;96161.94;5001819;28;20034;-67
2024/04/03 01:03:06;;;;;;;3.88;1.60;;;;;;;3.68;100.00;96156.31;4978668;28;20038;-66
2024/04/03 01:05:32;;;;;;;3.13;1.55;;;;;;;3.72;100.00;96149.09;5000854;28;20095;-67
2024/04/03 01:07:58;;;;;;;3.05;1.38;;;;;;;3.74;100.00;96149.53;5002141;28;20048;-68
2024/04/03 01:10:24;;;;;;;2.97;1.48;;;;;;;3.67;100.00;96151.22;4996303;28;20033;-67
2024/04/03 01:12:51;;;;;;;3.38;1.50;;;;;;;3.69;100.00;96141.66;5001633;28;20041;-68
2024/04/03 01:15:16;;;;;;;2.25;1.48;;;;;;;3.63;100.00;96140.28;4996686;28;20411;-69
2024/04/03 01:17:42;;;;;;;2.05;1.30;;;;;;;3.65;100.00;96132.59;5001193;28;20116;-68
2024/04/03 01:20:08;;;;;;;2.80;1.80;;;;;;;3.72;100.00;96124.72;4997506;28;20081;-65
2024/04/03 01:22:34;;;;;;;2.67;1.30;;;;;;;3.82;100.00;96121.56;5002761;28;20037;-66
2024/04/03 01:25:01;;;;;;;1.90;1.20;;;;;;;3.84;100.00;96113.13;5004063;28;20049;-67
2024/04/03 01:27:28;;;;;;;4.43;1.40;;;;;;;3.79;100.00;96111.41;5005461;28;20061;-66
2024/04/03 01:29:55;;;;;;;2.50;1.42;;;;;;;3.66;100.00;96109.81;5017473;28;20037;-67
2024/04/03 01:32:23;;;;;;;4.82;1.35;;;;;;;3.54;100.00;96105.16;4990708;28;20030;-67
2024/04/03 01:34:49;;;;;;;2.47;1.70;;;;;;;3.48;100.00;96106.50;5003616;28;20044;-68
2024/04/03 01:37:17;;;;;;;3.22;1.42;;;;;;;3.54;100.00;96112.50;4996279;28;20057;-68
2024/04/03 01:39:43;;;;;;;3.83;1.50;;;;;;;3.46;100.00;96116.88;5003242;28;20038;-68
2024/04/03 01:42:08;;;;;;;2.58;1.42;;;;;;;3.34;100.00;96112.22;4999489;28;20042;-69
2024/04/03 01:44:33;;;;;;;2.13;1.65;;;;;;;3.16;100.00;96108.88;5004943;28;20053;-67
2024/04/03 01:46:59;;;;;;;2.28;1.20;;;;;;;3.05;100.00;96113.91;5004618;28;20176;-65
2024/04/03 01:49:24;;;;;;;2.15;1.38;;;;;;;2.88;100.00;96108.66;5000870;28;20508;-66
2024/04/03 01:51:50;;;;;;;1.52;1.17;;;;;;;2.99;100.00;96104.44;5003986;28;20044;-65
2024/04/03 01:54:15;;;;;;;2.90;1.58;;;;;;;3.29;100.00;96100.81;4997725;28;20034;-68
2024/04/03 01:56:40;;;;;;;2.47;1.55;;;;;;;3.15;100.00;96095.69;4996108;28;20388;-68
2024/04/03 01:59:06;;;;;;;4.38;1.58;;;;;;;3.29;100.00;96093.47;4997264;28;20057;-67
2024/04/03 02:01:31;;;;;;;7.53;2.10;;;;;;;3.33;100.00;96094.41;5000070;28;20056;-67
2024/04/03 02:03:57;;;;;;;3.72;1.83;;;;;;;3.32;100.00;96094.75;5000743;28;20034;-68
2024/04/03 02:06:22;;;;;;;2.55;1.63;;;;;;;3.30;100.00;96095.06;4996135;28;20480;-68
2024/04/03 02:08:48;;;;;;;7.05;2.35;;;;;;;3.32;100.00;96084.69;5000040;28;20034;-66
2024/04/03 02:11:13;;;;;;;2.75;1.70;;;;;;;3.24;100.00;96082.84;4997937;28;20121;-66
2024/04/03 02:13:40;;;;;;;3.55;1.95;;;;;;;3.19;100.00;96081.16;5002667;28;20077;-67
2024/04/03 02:16:05;;;;;;;2.83;1.52;;;;;;;3.18;100.00;96082.28;4995658;28;20069;-69
2024/04/03 02:18:30;;;;;;;3.20;1.83;;;;;;;3.14;100.00;96073.25;5001156;28;20042;-67
2024/04/03 02:20:56;;;;;;;3.60;1.83;;;;;;;2.98;100.00;96078.50;4984495;28;20372;-68
2024/04/03 02:23:21;;;;;;;4.45;1.98;;;;;;;2.90;100.00;96079.38;4997411;28;20396;-66
2024/04/03 02:25:46;;;;;;;3.40;2.13;;;;;;;2.75;100.00;96085.38;5000952;28;20485;-68
2024/04/03 02:28:12;;;;;;;7.55;1.90;;;;;;;2.70;100.00;96088.28;4995083;28;20034;-67
2024/04/03 02:30:37;;;;;;;4.50;2.05;;;;;;;2.66;100.00;96088.16;5000452;28;20034;-68
2024/04/03 02:33:03;;;;;;;5.38;1.92;;;;;;;2.73;100.00;96093.03;4978573;28;20040;-66
2024/04/03 02:35:29;;;;;;;4.63;2.60;;;;;;;2.51;100.00;96083.34;5000718;28;20050;-68
2024/04/03 02:37:54;;;;;;;4.18;2.00;;;;;;;2.41;100.00;96079.91;4999781;28;20034;-71
2024/04/03 02:40:19;;;;;;;4.47;1.88;;;;;;;2.10;100.00;96088.34;4995242;28;20037;-69
2024/04/03 02:42:45;;;;;;;3.67;2.20;;;;;;;1.86;100.00;96078.16;5000100;28;20030;-69
2024/04/03 02:45:10;;;;;;;6.80;2.20;;;;;;;1.95;100.00;96078.13;4995711;28;20501;-67
2024/04/03 02:47:36;;;;;;;4.47;2.03;;;;;;;1.97;100.00;96079.38;4982024;28;20052;-66
2024/04/03 02:50:01;;;;;;;4.55;1.88;;;;;;;2.10;100.00;96083.75;4997617;28;20038;-66
2024/04/03 02:52:27;;;;;;;9.48;2.33;;;;;;;2.27;100.00;96082.88;4997546;28;20432;-68
2024/04/03 02:54:52;;;;;;;5.38;2.50;;;;;;;2.31;100.00;96082.22;4998962;28;20041;-68
2024/04/03 02:57:18;;;;;;;4.78;2.30;;;;;;;2.23;100.00;96078.44;4994449;28;20038;-69
2024/04/03 02:59:43;;;;;;;4.85;2.50;;;;;;;2.10;100.00;96070.22;4999078;28;20112;-67
2024/04/03 03:02:09;;;;;;;5.40;2.72;;;;;;;2.07;100.00;96062.00;4995413;28;20519;-68
2024/04/03 03:04:41;;;;;;;5.97;2.40;;;;;;;1.92;100.00;96055.25;4999499;28;20054;-69
2024/04/03 03:07:08;;;;;;;2.47;1.88;;;;;;;1.80;100.00;96053.25;4994778;28;20038;-68
2024/04/03 03:09:33;;;;;;;4.22;2.33;;;;;;;1.67;100.00;96049.66;5006252;28;20042;-70
2024/04/03 03:11:59;;;;;;;4.60;2.10;;;;;;;1.68;100.00;96039.66;5007100;28;20413;-69
2024/04/03 03:14:24;;;;;;;3.08;1.95;;;;;;;1.71;100.00;96030.91;5000964;28;20042;-67
2024/04/03 03:16:49;;;;;;;4.53;1.98;;;;;;;1.70;100.00;96023.94;5005785;28;20037;-67
2024/04/03 03:19:15;;;;;;;8.48;2.35;;;;;;;1.64;100.00;96022.50;5001460;28;20034;-69
2024/04/03 03:21:40;;;;;;;5.05;2.40;;;;;;;1.56;100.00;96023.34;5005437;28;20030;-68
2024/04/03 03:24:06;;;;;;;4.15;2.17;;;;;;;1.51;100.00;96027.03;4999339;28;20452;-69
2024/04/03 03:26:31;;;;;;;4.22;1.95;;;;;;;1.54;100.00;96026.38;5005803;28;20077;-69
2024/04/03 03:28:57;;;;;;;4.68;2.25;;;;;;;1.71;100.00;96030.91;4988199;28;20038;-69
2024/04/03 03:31:22;;;;;;;7.55;2.10;;;;;;;1.82;100.00;96037.53;5000195;28;20053;-67
2024/04/03 03:33:48;;;;;;;6.30;2.03;;;;;;;1.75;100.00;96026.44;5006009;28;20418;-68
2024/04/03 03:36:13;;;;;;;4.80;1.98;;;;;;;1.91;100.00;96032.88;5001199;28;20141;-68
2024/04/03 03:38:39;;;;;;;5.93;2.35;;;;;;;1.90;100.00;96031.28;5005650;28;20095;-67
2024/04/03 03:41:04;;;;;;;4.53;2.20;;;;;;;1.87;100.00;96021.13;5001841;28;20045;-67
2024/04/03 03:43:30;;;;;;;3.00;1.90;;;;;;;1.91;100.00;96021.28;5005704;28;20050;-68
2024/04/03 03:45:55;;;;;;;6.28;2.40;;;;;;;2.14;100.00;96016.34;5006070;28;20049;-67
2024/04/03 03:52:36;;;;;;;5.40;2.58;;;;;;;2.48;100.00;96006.38;4999806;28;20785;-69
2024/04/03 03:53:55;;;;;;;3.50;1.83;;;;;;;2.39;100.00;96016.47;4988959;28;20038;-68
2024/04/03 03:56:20;;;;;;;4.63;1.80;;;;;;;2.55;100.00;96019.38;5000095;28;20045;-68
2024/04/03 03:58:46;;;;;;;2.60;1.80;;;;;;;2.53;100.00;96025.13;5006867;28;20389;-68
2024/04/03 04:01:12;;;;;;;3.13;2.08;;;;;;;2.79;100.00;96030.31;5000705;28;20124;-67
2024/04/03 04:03:37;;;;;;;7.53;3.13;;;;;;;2.86;100.00;96035.16;5007125;28;20113;-66
2024/04/03 04:06:02;;;;;;;5.18;1.70;;;;;;;2.89;100.00;96034.50;5002262;28;20048;-65
2024/04/03 04:08:28;;;;;;;3.58;1.70;;;;;;;2.85;100.00;96039.78;5005703;28;20041;-68
2024/04/03 04:10:54;;;;;;;6.50;2.20;;;;;;;2.90;100.00;96033.41;4988219;28;20116;-65
2024/04/03 04:13:21;;;;;;;3.70;2.72;;;;;;;2.94;100.00;96034.31;5001008;28;20069;-66
2024/04/03 04:15:46;;;;;;;3.25;1.80;;;;;;;2.96;100.00;96036.69;5006539;28;20133;-69
2024/04/03 04:18:14;;;;;;;3.70;1.73;;;;;;;2.90;100.00;96033.41;4982329;28;20030;-69
2024/04/03 04:20:39;;;;;;;3.53;2.05;;;;;;;2.78;100.00;96034.13;4983707;28;20046;-69
2024/04/03 04:23:05;;;;;;;5.78;2.30;;;;;;;1.63;100.00;96029.03;4980557;28;20034;-68
2024/04/03 04:25:30;;;;;;;5.65;2.35;;;;;;;1.39;100.00;96029.59;5002203;28;20069;-69
2024/04/03 04:27:56;;;;;;;4.45;2.30;;;;;;;1.24;100.00;96037.13;5004077;28;20037;-67
2024/04/03 04:30:21;;;;;;;3.53;2.50;;;;;;;1.34;100.00;96035.97;4996945;28;20775;-67
2024/04/03 04:32:46;;;;;;;3.65;2.00;;;;;;;1.42;100.00;96045.16;5002464;28;20045;-69
2024/04/03 04:35:12;;;;;;;4.80;2.60;;;;;;;1.50;100.00;96031.63;4994385;28;20480;-67
2024/04/03 04:37:37;;;;;;;8.52;2.40;;;;;;;1.58;100.00;96026.53;4987119;28;20697;-68
2024/04/03 04:40:05;;;;;;;4.47;2.40;;;;;;;1.69;100.00;96027.72;5003019;28;20121;-64
2024/04/03 04:42:31;;;;;;;3.53;2.40;;;;;;;1.85;100.00;96033.38;4971255;28;20607;-69
2024/04/03 04:44:56;;;;;;;4.72;2.58;;;;;;;1.99;100.00;96017.72;5004599;28;20046;-69
2024/04/03 04:47:21;;;;;;;7.72;2.00;;;;;;;2.16;100.00;96027.63;4994669;28;20045;-69
2024/04/03 04:49:47;;;;;;;4.15;2.35;;;;;;;2.37;100.00;96032.25;5001868;28;20436;-69
2024/04/03 04:52:12;;;;;;;10.02;2.60;;;;;;;2.46;100.00;96043.78;4997107;28;20038;-68
2024/04/03 04:54:38;;;;;;;7.20;2.40;;;;;;;2.62;100.00;96041.28;4984170;28;20042;-68
2024/04/03 04:57:09;;;;;;;4.57;2.63;;;;;;;2.77;100.00;96046.06;4978500;28;20053;-68
2024/04/03 04:59:35;;;;;;;4.22;2.20;;;;;;;3.04;100.00;96058.25;5002172;28;20042;-68
2024/04/03 05:02:00;;;;;;;6.15;2.20;;;;;;;3.32;100.00;96071.16;5002786;28;20144;-68
2024/04/03 05:04:26;;;;;;;5.53;2.00;;;;;;;3.27;100.00;96070.59;5004425;28;20104;-67
2024/04/03 05:06:51;;;;;;;3.55;1.70;;;;;;;3.24;100.00;96070.13;5010705;28;20045;-67
2024/04/03 05:09:17;;;;;;;4.00;1.90;;;;;;;3.35;100.00;96069.69;5008374;28;20030;-66
2024/04/03 05:11:42;;;;;;;6.32;1.80;;;;;;;3.45;100.00;96070.03;5005994;28;20050;-68
2024/04/03 05:14:07;;;;;;;4.32;2.00;;;;;;;3.54;100.00;96080.00;5001019;28;20037;-68
2024/04/03 05:16:33;;;;;;;3.55;2.33;;;;;;;3.58;100.00;96076.31;5003093;28;20042;-68
2024/04/03 05:19:00;;;;;;;4.38;2.28;;;;;;;3.68;100.00;96080.47;5000551;28;20092;-67
2024/04/03 05:21:25;;;;;;;3.60;1.85;;;;;;;3.78;100.00;96081.94;4997731;28;20050;-69
2024/04/03 05:23:51;;;;;;;4.35;1.83;;;;;;;3.54;100.00;96077.28;5001695;28;20053;-69
2024/04/03 05:26:17;;;;;;;5.60;1.95;;;;;;;3.76;100.00;96065.25;4996485;28;20673;-67
2024/04/03 05:28:42;;;;;;;6.10;1.85;;;;;;;3.82;100.00;96070.09;5001576;28;20156;-70
2024/04/03 05:31:10;;;;;;;3.63;2.00;;;;;;;3.82;100.00;96061.97;4992521;28;20121;-68
2024/04/03 05:33:37;;;;;;;3.70;1.95;;;;;;;3.71;100.00;96066.25;5001029;28;20045;-68
2024/04/03 05:36:07;;;;;;;5.95;2.20;;;;;;;3.29;100.00;96065.63;4998683;28;20041;-65
2024/04/03 05:38:33;;;;;;;5.97;2.28;;;;;;;3.50;100.00;96063.63;5001682;28;20485;-68
2024/04/03 05:40:59;;;;;;;5.88;2.40;;;;;;;3.69;100.00;96065.81;5005794;28;20049;-68
2024/04/03 05:43:26;;;;;;;9.18;3.03;;;;;;;3.78;100.00;96071.09;5013793;28;20037;-67
2024/04/03 05:45:53;;;;;;;6.70;2.42;;;;;;;3.87;100.00;96060.16;5018922;28;20034;-66
2024/04/03 05:48:20;;;;;;;5.95;2.47;;;;;;;3.90;100.00;96065.69;5005711;28;20064;-68
2024/04/03 05:50:46;;;;;;;3.42;2.22;;;;;;;4.00;100.00;96064.47;5000706;28;20042;-68
2024/04/03 05:53:11;;;;;;;3.55;1.83;;;;;;;4.12;100.00;96061.72;4996567;28;20531;-69
2024/04/03 05:55:37;;;;;;;4.35;2.33;;;;;;;4.33;100.00;96061.59;5000906;28;20053;-69
2024/04/03 05:58:05;;;;;;;3.38;2.20;;;;;;;4.30;100.00;96064.19;4997559;28;20109;-64
2024/04/03 06:00:30;;;;;;;5.40;2.50;;;;;;;4.53;100.00;96056.38;5000508;28;20045;-68
2024/04/03 06:02:56;;;;;;;3.03;1.90;;;;;;;4.49;100.00;96060.91;5000374;28;20818;-67
2024/04/03 06:05:21;;;;;;;4.25;1.95;;;;;;;4.53;100.00;96054.44;4995296;28;20050;-68
2024/04/03 06:07:48;;;;;;;4.47;1.92;;;;;;;4.57;100.00;96058.06;4999463;28;20038;-68
2024/04/03 06:10:15;;;;;;;5.55;1.88;;;;;;;4.59;100.00;96061.22;4995725;28;20042;-69
2024/04/03 06:12:40;;;;;;;4.82;2.15;;;;;;;4.50;100.00;96063.28;5001020;28;20056;-67
2024/04/03 06:15:06;;;;;;;9.13;2.30;;;;;;;4.55;100.00;96073.88;4996230;28;20038;-70
2024/04/03 06:17:32;;;;;;;3.92;1.90;;;;;;;4.75;100.00;96076.75;4999262;28;20042;-69
2024/04/03 06:19:57;;;;;;;5.38;2.22;;;;;;;4.69;100.00;96084.34;4999306;28;20034;-68
2024/04/03 06:22:22;;;;;;;5.40;2.17;;;;;;;4.75;100.00;96082.19;4997368;28;20072;-68
2024/04/03 06:24:48;;;;;;;2.70;1.83;;;;;;;4.74;100.00;96089.53;5004267;28;20042;-67
2024/04/03 06:27:13;;;;;;;6.20;2.63;;;;;;;4.76;100.00;96094.63;5001903;28;20045;-68
2024/04/03 06:29:39;;;;;;;9.48;3.45;;;;;;;4.92;100.00;96098.19;5002823;28;20038;-67
2024/04/03 06:32:06;;;;;;;7.22;2.90;;;;;;;5.17;100.00;96096.19;4995879;28;20030;-67
2024/04/03 06:34:31;;;;;;;4.25;1.90;;;;;;;5.27;100.00;96094.88;4997541;28;20161;-66
2024/04/03 06:36:59;;;;;;;5.40;2.05;;;;;;;5.29;100.00;96095.31;4999380;28;20460;-67
2024/04/03 06:39:25;;;;;;;6.60;2.55;;;;;;;5.46;100.00;96101.59;4995069;28;20204;-67
2024/04/03 06:41:51;;;;;;;5.22;1.83;;;;;;;5.36;100.00;96097.44;4998625;28;20062;-67
2024/04/03 06:44:17;;;;;;;9.02;2.15;;;;;;;5.47;100.00;96103.94;4995224;28;20049;-68
2024/04/03 06:46:43;;;;;;;8.50;2.22;;;;;;;5.39;100.00;96104.13;5000314;28;20125;-69
2024/04/03 06:49:10;;;;;;;3.33;1.50;;;;;;;5.53;100.00;96105.28;4995520;28;20180;-67
2024/04/03 06:51:36;;;;;;;4.32;1.92;;;;;;;5.50;100.00;96116.84;5002614;28;20160;-67
2024/04/03 06:54:03;;;;;;;4.28;2.10;;;;;;;5.40;100.00;96111.13;5000407;28;20585;-66
2024/04/03 06:56:30;;;;;;;3.00;1.50;;;;;;;5.58;100.00;96111.59;5001332;28;20409;-68
2024/04/03 06:58:56;;;;;;;3.40;1.60;;;;;;;5.68;100.00;96102.94;5001251;28;20103;-68
2024/04/03 07:01:22;;;;;;;5.03;1.83;;;;;;;5.68;100.00;96101.00;4996070;28;20046;-66
2024/04/03 07:03:47;;;;;;;6.10;1.90;;;;;;;5.85;100.00;96104.50;5000381;28;20137;-67
2024/04/03 07:06:13;;;;;;;4.22;1.40;;;;;;;5.90;100.00;96106.97;4979581;28;20048;-67
2024/04/03 07:08:38;;;;;;;5.57;2.10;;;;;;;5.92;100.00;96105.50;5001746;28;20096;-69
2024/04/03 07:11:04;;;;;;;19.35;5.72;;;;;;;5.94;100.00;96105.13;4979083;28;20048;-66
2024/04/03 07:13:29;;;;;;;5.53;2.90;;;;;;;5.84;100.00;96101.00;5000555;28;20065;-69
2024/04/03 07:15:55;;;;;;;439.38;176.45;;;;;;;6.10;100.00;96100.53;4983975;28;20519;-69
2024/04/03 07:18:20;;;;;;;24.20;11.63;;;;;;;6.30;100.00;96111.44;4992772;28;20110;-67
2024/04/03 07:20:54;;;;;;;5.25;2.38;;;;;;;6.28;100.00;96125.41;5000545;28;20104;-68
2024/04/03 07:23:25;;;;;;;5.47;2.47;;;;;;;6.31;100.00;96130.13;4995561;28;20049;-67
2024/04/03 07:25:51;;;;;;;5.35;2.00;;;;;;;6.36;100.00;96131.81;4988310;28;20045;-68
2024/04/03 07:28:17;;;;;;;6.35;2.40;;;;;;;6.42;100.00;96122.22;4985026;28;20041;-69
2024/04/03 07:30:42;;;;;;;4.35;2.00;;;;;;;6.61;100.00;96118.78;5004524;28;20508;-69
2024/04/03 07:33:09;;;;;;;5.05;2.20;;;;;;;6.64;100.00;96114.53;4979389;28;20577;-68
2024/04/03 07:35:35;;;;;;;5.18;3.47;;;;;;;6.85;100.00;96100.63;5001154;28;20476;-67
2024/04/03 07:38:03;;;;;;;7.35;3.50;;;;;;;7.06;100.00;96100.28;4998458;28;20096;-67
2024/04/03 07:40:28;;;;;;;8.45;4.28;;;;;;;7.25;100.00;96094.81;4997775;28;20060;-68
2024/04/03 07:42:53;;;;;;;6.95;4.03;;;;;;;6.80;100.00;96103.63;4998863;28;20042;-68
2024/04/03 07:45:19;;;;;;;6.35;2.65;;;;;;;7.01;100.00;96090.44;4979919;28;20173;-67
2024/04/03 07:47:48;;;;;;;7.13;2.92;;;;;;;6.48;100.00;96090.91;5000111;28;20057;-68
2024/04/03 07:50:15;;;;;;;8.07;5.15;;;;;;;6.30;100.00;96089.69;4970048;28;20162;-67
2024/04/03 07:52:40;;;;;;;6.80;2.50;;;;;;;6.58;100.00;96086.03;4998799;28;20046;-66
2024/04/03 07:55:15;;;;;;;3.88;2.30;;;;;;;7.46;100.00;96080.81;4982490;28;20655;-67
2024/04/03 07:57:41;;;;;;;6.95;3.05;;;;;;;7.97;100.00;96077.00;5004170;28;20041;-68
2024/04/03 08:00:10;;;;;;;10.88;2.50;;;;;;;8.58;100.00;96075.22;4999521;28;20409;-68
2024/04/03 08:02:37;;;;;;;11.50;5.70;;;;;;;9.02;100.00;96065.69;5004788;28;20108;-68
2024/04/03 08:05:06;;;;;;;19.83;6.18;;;;;;;9.33;100.00;96080.09;4982014;28;20053;-65
2024/04/03 08:07:32;;;;;;;30.85;16.45;;;;;;;9.35;100.00;96073.06;5001729;28;20050;-67
2024/04/03 08:10:04;;;;;;;9.07;4.55;;;;;;;9.88;100.00;96073.97;5002814;28;20038;-68
2024/04/03 08:12:30;;;;;;;7.22;2.80;;;;;;;10.32;100.00;96082.19;5001981;28;20045;-68
2024/04/03 08:14:59;;;;;;;6.53;2.20;;;;;;;10.90;100.00;96074.34;5003668;28;20803;-68
2024/04/03 08:17:25;;;;;;;9.05;2.80;;;;;;;11.14;100.00;96078.34;4981275;28;20504;-67
2024/04/03 08:19:54;;;;;;;4.82;2.45;;;;;;;11.35;100.00;96080.38;4985407;28;20056;-68
2024/04/03 08:22:20;;;;;;;4.72;2.58;;;;;;;11.46;100.00;96075.72;4978727;28;20124;-67
2024/04/03 08:24:50;;;;;;;4.88;2.28;;;;;;;11.63;100.00;96082.44;5002929;28;20149;-70
2024/04/03 08:27:16;;;;;;;7.57;1.77;;;;;;;11.47;100.00;96076.53;4995668;28;20038;-70
2024/04/03 08:29:43;;;;;;;9.38;2.58;;;;;;;10.95;100.00;96075.91;5002621;28;20145;-68
2024/04/03 08:32:09;;;;;;;5.03;2.13;;;;;;;11.15;100.00;96081.88;4997820;28;20046;-68
2024/04/03 08:34:35;;;;;;;4.82;1.88;;;;;;;11.16;100.00;96077.97;4985621;28;20038;-69
2024/04/03 08:37:01;;;;;;;6.43;1.85;;;;;;;10.97;100.00;96079.84;5003683;28;20509;-66
2024/04/03 08:39:26;;;;;;;4.05;1.92;;;;;;;11.33;100.00;96071.75;5001067;28;20057;-68
2024/04/03 08:41:56;;;;;;;4.40;2.47;;;;;;;12.16;100.00;96077.44;5001714;28;20157;-67
2024/04/03 08:44:22;;;;;;;;;;;;;;;12.69;99.68;96070.31;4996790;28;20058;-70
2024/04/03 08:46:49;;;;;;;7.78;2.25;;;;;;;13.54;97.24;96065.69;5001303;28;20296;-68
2024/04/03 08:49:17;;;;;;;4.80;1.95;;;;;;;13.69;94.83;96071.91;4978367;28;20038;-70
2024/04/03 08:51:59;;;;;;;3.10;1.63;;;;;;;15.49;81.00;96080.09;4985998;28;20667;-69
2024/04/03 08:54:28;;;;;;;7.05;1.75;;;;;;;15.67;75.62;96082.63;4980211;28;20057;-68
2024/04/03 08:56:55;;;;;;;3.63;2.17;;;;;;;16.77;64.84;96073.03;5001499;28;20496;-70
2024/04/03 08:59:20;;;;;;;5.03;1.77;;;;;;;16.97;61.37;96077.84;4979407;28;20053;-68
2024/04/03 09:01:50;;;;;;;5.47;1.92;;;;;;;17.98;57.90;96073.78;5002426;28;20037;-69
2024/04/03 09:04:17;;;;;;;4.85;1.85;;;;;;;17.55;57.69;96080.25;4998211;28;20476;-69
2024/04/03 09:06:43;;;;;;;4.45;1.80;;;;;;;18.89;54.13;96073.22;4985245;28;20041;-69
2024/04/03 09:09:17;;;;;;;4.90;1.77;;;;;;;18.85;53.00;96073.28;4979478;28;20040;-69
2024/04/03 09:11:43;;;;;;;5.32;1.60;;;;;;;17.93;56.20;96066.00;4983738;28;20038;-68
2024/04/03 09:14:09;;;;;;;5.65;1.75;;;;;;;16.79;61.63;96059.56;4996601;28;20034;-68
2024/04/03 09:16:35;;;;;;;3.13;1.65;;;;;;;15.61;70.18;96058.66;4982905;28;20057;-70
2024/04/03 09:19:07;;;;;;;4.88;1.88;;;;;;;14.34;83.22;96059.22;5000435;28;20038;-67
2024/04/03 09:21:32;;;;;;;4.35;2.08;;;;;;;13.63;88.40;96046.78;4981315;28;20065;-69
2024/04/03 09:23:58;;;;;;;4.47;1.92;;;;;;;13.51;90.56;96053.53;4985795;28;20066;-67
2024/04/03 09:26:25;;;;;;;6.10;1.92;;;;;;;13.33;90.92;96048.13;4996721;28;20096;-67
2024/04/03 09:28:58;;;;;;;5.05;2.10;;;;;;;12.81;98.33;96056.16;5001001;28;20072;-69
2024/04/03 09:31:24;;;;;;;6.10;2.30;;;;;;;12.03;100.00;96057.81;4996696;28;20038;-67
2024/04/03 09:33:52;;;;;;;3.53;2.10;;;;;;;11.68;100.00;96056.56;5003128;28;20477;-68
2024/04/03 09:36:17;;;;;;;7.47;2.28;;;;;;;11.56;100.00;96054.19;4997162;28;20735;-68
2024/04/03 09:38:43;;;;;;;5.93;2.00;;;;;;;11.26;100.00;96066.25;5002905;28;20176;-68
2024/04/03 09:41:11;;;;;;;4.57;2.60;;;;;;;11.36;100.00;96057.28;4998863;28;20066;-68
2024/04/03 09:43:38;;;;;;;4.05;2.42;;;;;;;11.15;100.00;96066.22;5000600;28;20527;-69
2024/04/03 09:46:08;;;;;;;7.43;2.40;;;;;;;11.09;100.00;96060.31;4978403;28;20053;-67
2024/04/03 09:48:34;;;;;;;4.60;2.22;;;;;;;10.78;100.00;96063.69;4980183;28;20042;-68
2024/04/03 09:51:00;;;;;;;6.20;2.20;;;;;;;10.95;100.00;96060.28;4985711;28;20029;-69
2024/04/03 09:53:27;;;;;;;6.22;2.40;;;;;;;11.19;100.00;96055.28;5007942;28;20057;-68
2024/04/03 09:55:54;;;;;;;4.45;2.30;;;;;;;11.52;100.00;96064.38;5022594;28;20034;-66
2024/04/03 09:58:26;;;;;;;6.10;2.53;;;;;;;11.72;100.00;96064.81;5005775;28;20046;-68
2024/04/03 10:00:54;;;;;;;4.65;2.33;;;;;;;11.96;100.00;96063.31;5001902;28;20052;-69
2024/04/03 10:03:30;;;;;;;6.40;2.20;;;;;;;12.70;100.00;96069.91;4996164;28;20037;-70
2024/04/03 10:06:04;;;;;;;4.47;2.05;;;;;;;12.71;99.85;96066.00;5001146;28;20049;-69
2024/04/03 10:08:37;;;;;;;6.30;2.20;;;;;;;12.91;96.27;96074.59;4982338;28;20169;-68
2024/04/03 10:11:08;;;;;;;5.53;1.92;;;;;;;13.20;93.11;96077.25;4978434;28;20046;-64
2024/04/03 10:13:35;;;;;;;5.18;1.80;;;;;;;13.50;89.76;96073.97;5002572;28;20042;-68
2024/04/03 10:16:05;;;;;;;3.00;1.73;;;;;;;13.41;90.23;96081.09;5002006;28;20408;-68
2024/04/03 10:18:35;;;;;;;5.82;2.60;;;;;;;13.47;90.29;96080.28;5000703;28;20042;-69
2024/04/03 10:21:01;;;;;;;;;;;;;;;13.44;89.90;96085.81;5000799;28;20053;-68
2024/04/03 10:23:26;;;;;;;8.95;1.58;;;;;;;13.70;88.65;96088.03;4999486;28;19918;-67
2024/04/03 10:25:52;;;;;;;4.32;1.20;;;;;;;13.55;84.76;96092.03;5000494;28;20096;-67
2024/04/03 10:28:18;;;;;;;6.03;1.60;;;;;;;13.47;84.09;96090.47;4980062;28;20092;-68
2024/04/03 10:30:44;;;;;;;3.72;1.45;;;;;;;13.57;82.63;96095.94;5000256;28;20149;-67
2024/04/03 10:33:11;;;;;;;3.92;1.23;;;;;;;13.30;80.12;96095.63;4994747;28;20045;-69
2024/04/03 10:35:36;;;;;;;3.72;1.63;;;;;;;13.12;84.08;96100.44;5001734;28;20104;-68
2024/04/03 10:38:02;;;;;;;3.10;1.13;;;;;;;12.61;83.18;96099.75;4999142;28;20053;-67
2024/04/03 10:40:30;;;;;;;1.88;0.98;;;;;;;12.51;83.25;96104.06;5001574;28;20050;-68
2024/04/03 10:42:55;;;;;;;2.83;1.80;;;;;;;12.40;90.23;96109.56;5002906;28;20100;-68
2024/04/03 10:45:21;;;;;;;4.50;1.20;;;;;;;12.49;91.78;96111.94;4979887;28;20069;-68
2024/04/03 10:47:47;;;;;;;3.97;1.40;;;;;;;12.54;94.04;96103.28;5004079;28;20496;-67
2024/04/03 10:50:13;;;;;;;3.85;1.30;;;;;;;12.76;91.04;96117.00;5001027;28;20038;-68
2024/04/03 10:52:39;;;;;;;2.17;1.17;;;;;;;12.77;90.66;96121.34;5006116;28;20056;-69
2024/04/03 10:55:05;;;;;;;6.20;1.45;;;;;;;12.65;96.93;96116.25;4997033;28;20432;-68
2024/04/03 10:57:30;;;;;;;4.18;1.67;;;;;;;12.66;99.45;96115.03;4975990;28;20041;-69
2024/04/03 10:59:56;;;;;;;5.30;1.73;;;;;;;12.61;100.00;96117.03;4983894;28;20121;-69
2024/04/03 11:02:22;;;;;;;3.10;1.63;;;;;;;12.29;100.00;96110.75;4995671;28;20961;-69
2024/04/03 11:04:50;;;;;;;3.30;1.70;;;;;;;12.30;100.00;96117.81;5000626;28;20497;-67
2024/04/03 11:07:15;;;;;;;4.75;1.50;;;;;;;12.32;100.00;96120.97;4995686;28;20042;-67
2024/04/03 11:09:41;;;;;;;4.05;1.52;;;;;;;12.31;100.00;96116.66;5000337;28;20137;-68
2024/04/03 11:12:11;;;;;;;3.63;1.52;;;;;;;12.21;100.00;96110.75;4995774;28;20400;-68
2024/04/03 11:14:37;;;;;;;5.95;2.05;;;;;;;11.83;100.00;96112.25;4982917;28;20500;-67
2024/04/03 11:17:07;;;;;;;3.00;1.40;;;;;;;11.65;100.00;96113.00;4997689;28;20034;-66
2024/04/03 11:19:39;;;;;;;5.38;2.05;;;;;;;11.84;100.00;96111.06;4999400;28;20044;-67
2024/04/03 11:22:04;;;;;;;4.38;1.50;;;;;;;11.69;100.00;96123.97;4987206;28;20539;-66
2024/04/03 11:24:30;;;;;;;5.60;1.40;;;;;;;11.63;100.00;96114.53;4982292;28;20109;-67
2024/04/03 11:26:55;;;;;;;4.57;1.52;;;;;;;11.55;100.00;96119.22;4981483;28;20076;-69
2024/04/03 11:29:31;;;;;;;3.72;1.20;;;;;;;11.55;100.00;96119.22;4981130;28;20050;-69
2024/04/03 11:31:58;;;;;;;5.47;1.80;;;;;;;11.48;100.00;96125.47;4985877;28;20121;-67